createdAt,value
2022-09-09T00:00:22.164Z,99449.31
2022-09-09T00:01:38.341Z,99489.31
2022-09-09T00:02:41.746Z,99460.63
2022-09-09T00:03:55.033Z,99462.94
2022-09-09T00:05:03.134Z,99489.91
2022-09-09T00:06:22.222Z,99493.53
2022-09-09T00:07:40.035Z,99467.78
2022-09-09T00:08:41.800Z,99492.19
2022-09-09T00:10:20.922Z,99484.25
2022-09-09T00:11:42.412Z,99494.63
2022-09-09T00:12:53.083Z,99497.97
2022-09-09T00:13:58.092Z,99490.78
2022-09-09T00:15:06.335Z,99494.44
2022-09-09T00:16:25.251Z,99441.00
2022-09-09T00:17:45.845Z,99488.03
2022-09-09T00:19:08.248Z,99442.78
2022-09-09T00:20:20.421Z,99482.47
2022-09-09T00:21:33.919Z,99452.28
2022-09-09T00:22:37.770Z,99453.72
2022-09-09T00:23:44.307Z,99485.72
2022-09-09T00:24:48.686Z,99485.25
2022-09-09T00:25:59.752Z,99485.50
2022-09-09T00:27:14.514Z,99459.38
2022-09-09T00:28:26.743Z,99483.56
2022-09-09T00:29:44.564Z,99492.59
2022-09-09T00:30:50.556Z,99495.09
2022-09-09T00:31:58.650Z,99475.25
2022-09-09T00:33:16.253Z,99459.97
2022-09-09T00:34:22.611Z,99465.16
2022-09-09T00:35:28.671Z,99482.94
2022-09-09T00:36:34.333Z,99457.09
2022-09-09T00:37:37.141Z,99503.44
2022-09-09T00:38:44.176Z,99467.53
2022-09-09T00:39:53.272Z,99466.84
2022-09-09T00:41:16.339Z,99483.06
2022-09-09T00:42:27.875Z,99486.78
2022-09-09T00:43:31.332Z,99471.94
2022-09-09T00:44:36.849Z,99475.66
2022-09-09T00:45:53.997Z,99479.03
2022-09-09T00:47:33.915Z,99481.31
2022-09-09T00:48:58.786Z,99493.50
2022-09-09T00:50:19.033Z,99495.66
2022-09-09T00:51:51.566Z,99508.75
2022-09-09T00:53:23.285Z,99515.50
2022-09-09T00:54:33.791Z,99521.38
2022-09-09T00:56:17.746Z,99468.84
2022-09-09T00:57:34.711Z,99515.25
2022-09-09T00:58:37.516Z,99528.63
2022-09-09T00:59:51.423Z,99545.88
2022-09-09T01:01:22.273Z,99542.78
2022-09-09T01:02:28.371Z,99543.78
2022-09-09T01:03:54.508Z,99549.72
2022-09-09T01:05:06.082Z,99551.25
2022-09-09T01:06:32.914Z,99589.09
2022-09-09T01:07:37.320Z,99570.84
2022-09-09T01:08:54.540Z,99572.59
2022-09-09T01:10:04.732Z,99561.97
2022-09-09T01:11:15.030Z,99570.63
2022-09-09T01:12:24.485Z,99584.88
2022-09-09T01:13:36.556Z,99582.41
2022-09-09T01:14:38.650Z,99587.97
2022-09-09T01:15:42.738Z,99527.09
2022-09-09T01:16:46.546Z,99582.09
2022-09-09T01:18:11.934Z,99584.38
2022-09-09T01:19:25.414Z,99576.06
2022-09-09T01:20:38.540Z,99567.28
2022-09-09T01:21:56.306Z,99581.41
2022-09-09T01:23:18.497Z,99574.13
2022-09-09T01:24:43.374Z,99565.44
2022-09-09T01:26:06.667Z,99523.09
2022-09-09T01:27:10.387Z,99533.69
2022-09-09T01:28:17.678Z,99532.06
2022-09-09T01:29:21.857Z,99549.03
2022-09-09T01:30:24.008Z,99546.34
2022-09-09T01:31:38.949Z,99548.72
2022-09-09T01:32:52.201Z,99545.22
2022-09-09T01:33:53.920Z,99546.81
2022-09-09T01:34:55.746Z,99556.09
2022-09-09T01:36:08.968Z,99565.47
2022-09-09T01:37:13.036Z,99548.28
2022-09-09T01:38:15.552Z,99559.97
2022-09-09T01:39:18.551Z,99569.66
2022-09-09T01:40:20.255Z,99555.25
2022-09-09T01:41:22.198Z,99545.22
2022-09-09T01:42:23.749Z,99570.00
2022-09-09T01:43:26.400Z,99563.44
2022-09-09T01:44:29.343Z,99572.94
2022-09-09T01:45:32.361Z,99542.59
2022-09-09T01:46:34.101Z,99543.44
2022-09-09T01:47:37.321Z,99556.88
2022-09-09T01:48:40.490Z,99558.69
2022-09-09T01:49:42.234Z,99564.06
2022-09-09T01:50:43.926Z,99559.00
2022-09-09T01:51:50.334Z,99547.81
2022-09-09T01:52:59.547Z,99521.00
2022-09-09T01:54:02.959Z,99550.56
2022-09-09T01:55:05.820Z,99495.53
2022-09-09T01:56:37.063Z,99491.56
2022-09-09T01:57:55.079Z,99491.72
2022-09-09T01:59:10.545Z,99508.94
2022-09-09T02:00:15.592Z,99520.00
2022-09-09T02:01:44.102Z,99528.69
2022-09-09T02:03:01.951Z,99528.88
2022-09-09T02:04:29.347Z,99488.44
2022-09-09T02:05:38.385Z,99503.13
2022-09-09T02:06:41.430Z,99510.84
2022-09-09T02:07:59.154Z,99511.78
2022-09-09T02:09:04.463Z,99503.63
2022-09-09T02:10:36.611Z,99507.34
2022-09-09T02:11:39.278Z,99507.34
2022-09-09T02:12:45.586Z,99484.88
2022-09-09T02:13:49.995Z,99505.66
2022-09-09T02:14:57.366Z,99506.63
2022-09-09T02:16:05.564Z,99522.31
2022-09-09T02:17:11.730Z,99504.91
2022-09-09T02:18:18.514Z,99509.44
2022-09-09T02:19:28.683Z,99505.22
2022-09-09T02:20:35.214Z,99480.41
2022-09-09T02:21:37.956Z,99478.88
2022-09-09T02:22:43.407Z,99500.69
2022-09-09T02:23:48.177Z,99479.94
2022-09-09T02:24:54.666Z,99463.56
2022-09-09T02:26:00.431Z,99491.00
2022-09-09T02:27:08.068Z,99464.22
2022-09-09T02:28:12.006Z,99476.06
2022-09-09T02:29:17.942Z,99481.50
2022-09-09T02:30:21.653Z,99478.03
2022-09-09T02:31:26.309Z,99475.69
2022-09-09T02:32:31.541Z,99480.34
2022-09-09T02:33:43.922Z,99469.38
2022-09-09T02:34:51.208Z,99487.94
2022-09-09T02:35:54.989Z,99460.06
2022-09-09T02:37:00.979Z,99437.28
2022-09-09T02:38:09.286Z,99455.66
2022-09-09T02:39:12.906Z,99462.41
2022-09-09T02:40:17.738Z,99460.91
2022-09-09T02:41:29.433Z,99481.81
2022-09-09T02:42:31.453Z,99483.81
2022-09-09T02:43:34.645Z,99460.50
2022-09-09T02:44:38.083Z,99460.44
2022-09-09T02:45:51.202Z,99465.97
2022-09-09T02:47:04.559Z,99474.41
2022-09-09T02:48:29.630Z,99480.09
2022-09-09T02:49:40.314Z,99480.09
2022-09-09T02:50:58.409Z,99460.47
2022-09-09T02:52:06.710Z,99473.97
2022-09-09T02:53:18.759Z,99465.34
2022-09-09T02:54:32.143Z,99447.16
2022-09-09T02:55:46.458Z,99458.53
2022-09-09T02:56:57.422Z,99478.66
2022-09-09T02:58:00.709Z,99452.56
2022-09-09T02:59:06.390Z,99469.09
2022-09-09T03:00:08.677Z,99475.31
2022-09-09T03:01:10.402Z,99468.09
2022-09-09T03:02:13.918Z,99466.44
2022-09-09T03:03:17.376Z,99485.28
2022-09-09T03:04:20.310Z,99505.03
2022-09-09T03:05:22.041Z,99505.22
2022-09-09T03:06:24.182Z,99500.78
2022-09-09T03:07:26.138Z,99473.56
2022-09-09T03:08:28.713Z,99496.28
2022-09-09T03:09:31.299Z,99504.91
2022-09-09T03:10:34.082Z,99494.03
2022-09-09T03:11:36.404Z,99498.47
2022-09-09T03:12:37.901Z,99488.13
2022-09-09T03:13:39.433Z,99473.03
2022-09-09T03:14:42.423Z,99474.06
2022-09-09T03:15:44.227Z,99511.31
2022-09-09T03:16:45.985Z,99504.91
2022-09-09T03:17:51.192Z,99463.06
2022-09-09T03:18:53.301Z,99507.16
2022-09-09T03:19:56.004Z,99495.34
2022-09-09T03:20:58.871Z,99482.94
2022-09-09T03:22:01.205Z,99497.16
2022-09-09T03:23:03.973Z,99496.13
2022-09-09T03:24:06.077Z,99480.19
2022-09-09T03:25:08.265Z,99500.66
2022-09-09T03:26:09.921Z,99476.06
2022-09-09T03:27:11.557Z,99439.75
2022-09-09T03:28:13.607Z,99477.66
2022-09-09T03:29:15.753Z,99495.13
2022-09-09T03:30:17.731Z,99501.81
2022-09-09T03:31:20.442Z,99493.66
2022-09-09T03:32:27.522Z,99499.88
2022-09-09T03:33:30.623Z,99489.25
2022-09-09T03:34:32.722Z,99486.44
2022-09-09T03:35:34.258Z,99459.59
2022-09-09T03:36:37.277Z,99496.56
2022-09-09T03:37:40.100Z,99518.66
2022-09-09T03:38:43.068Z,99453.66
2022-09-09T03:39:45.211Z,99508.06
2022-09-09T03:40:56.487Z,99504.66
2022-09-09T03:41:58.386Z,99496.97
2022-09-09T03:43:00.545Z,99492.38
2022-09-09T03:44:02.334Z,99439.88
2022-09-09T03:45:11.572Z,99492.94
2022-09-09T03:46:13.165Z,99492.00
2022-09-09T03:47:14.889Z,99463.41
2022-09-09T03:48:19.934Z,99502.41
2022-09-09T03:49:23.017Z,99488.06
2022-09-09T03:50:24.745Z,99495.84
2022-09-09T03:51:27.705Z,99491.63
2022-09-09T03:52:29.683Z,99494.81
2022-09-09T03:53:31.468Z,99488.06
2022-09-09T03:54:32.991Z,99494.06
2022-09-09T03:55:34.641Z,99501.56
2022-09-09T03:56:36.734Z,99458.44
2022-09-09T03:57:38.930Z,99438.19
2022-09-09T03:58:41.014Z,99470.69
2022-09-09T03:59:42.896Z,99492.56
2022-09-09T04:00:46.354Z,99477.31
2022-09-09T04:01:48.285Z,99499.78
2022-09-09T04:02:50.760Z,99442.78
2022-09-09T04:03:53.687Z,99470.13
2022-09-09T04:04:55.666Z,99477.53
2022-09-09T04:06:02.906Z,99502.22
2022-09-09T04:07:07.804Z,99467.38
2022-09-09T04:08:10.797Z,99453.56
2022-09-09T04:09:12.517Z,99452.63
2022-09-09T04:10:14.946Z,99488.78
2022-09-09T04:11:17.865Z,99493.81
2022-09-09T04:12:19.746Z,99480.44
2022-09-09T04:13:21.747Z,99484.56
2022-09-09T04:14:23.722Z,99497.53
2022-09-09T04:15:25.234Z,99471.53
2022-09-09T04:16:27.041Z,99464.69
2022-09-09T04:17:29.273Z,99511.78
2022-09-09T04:18:31.864Z,99500.16
2022-09-09T04:19:34.737Z,99493.59
2022-09-09T04:20:37.480Z,99534.16
2022-09-09T04:21:40.828Z,99502.50
2022-09-09T04:22:42.671Z,99488.13
2022-09-09T04:23:44.496Z,99475.53
2022-09-09T04:24:48.804Z,99496.84
2022-09-09T04:25:55.849Z,99500.50
2022-09-09T04:26:57.503Z,99475.34
2022-09-09T04:27:59.384Z,99488.34
2022-09-09T04:29:01.542Z,99506.91
2022-09-09T04:30:03.966Z,99453.66
2022-09-09T04:31:13.013Z,99500.06
2022-09-09T04:32:14.943Z,99420.91
2022-09-09T04:33:18.649Z,99510.47
2022-09-09T04:34:20.659Z,99511.78
2022-09-09T04:35:22.208Z,99500.53
2022-09-09T04:36:24.175Z,99511.44
2022-09-09T04:37:26.772Z,99505.41
2022-09-09T04:38:28.288Z,99468.59
2022-09-09T04:39:30.618Z,99531.75
2022-09-09T04:40:32.767Z,99480.47
2022-09-09T04:41:34.534Z,99501.78
2022-09-09T04:42:38.943Z,99483.94
2022-09-09T04:43:40.642Z,99512.84
2022-09-09T04:44:42.514Z,99512.00
2022-09-09T04:45:48.586Z,99515.84
2022-09-09T04:46:50.479Z,99503.34
2022-09-09T04:47:52.560Z,99513.31
2022-09-09T04:48:55.046Z,99527.75
2022-09-09T04:49:57.729Z,99500.94
2022-09-09T04:51:00.995Z,99499.97
2022-09-09T04:52:03.771Z,99460.34
2022-09-09T04:53:06.149Z,99530.66
2022-09-09T04:54:08.361Z,99487.09
2022-09-09T04:55:10.891Z,99537.16
2022-09-09T04:56:15.771Z,99533.50
2022-09-09T04:57:18.858Z,99522.03
2022-09-09T04:58:23.439Z,99525.31
2022-09-09T04:59:26.638Z,99530.56
2022-09-09T05:00:28.483Z,99532.25
2022-09-09T05:01:30.148Z,99498.34
2022-09-09T05:02:33.204Z,99502.97
2022-09-09T05:03:38.895Z,99532.75
2022-09-09T05:04:40.610Z,99533.78
2022-09-09T05:05:42.136Z,99509.91
2022-09-09T05:06:44.126Z,99530.13
2022-09-09T05:07:45.737Z,99497.34
2022-09-09T05:08:47.384Z,99476.56
2022-09-09T05:09:50.795Z,99521.75
2022-09-09T05:10:53.791Z,99534.16
2022-09-09T05:11:55.934Z,99493.31
2022-09-09T05:12:57.639Z,99510.03
2022-09-09T05:13:59.233Z,99503.56
2022-09-09T05:15:00.751Z,99525.03
2022-09-09T05:16:02.568Z,99534.03
2022-09-09T05:17:04.821Z,99540.13
2022-09-09T05:18:06.415Z,99538.34
2022-09-09T05:19:10.638Z,99541.09
2022-09-09T05:20:17.357Z,99527.56
2022-09-09T05:21:21.827Z,99498.94
2022-09-09T05:22:24.636Z,99538.34
2022-09-09T05:23:26.563Z,99497.25
2022-09-09T05:24:28.755Z,99542.47
2022-09-09T05:25:30.856Z,99550.81
2022-09-09T05:26:33.376Z,99554.22
2022-09-09T05:27:35.484Z,99547.91
2022-09-09T05:28:39.870Z,99550.34
2022-09-09T05:29:44.318Z,99524.91
2022-09-09T05:30:46.290Z,99526.38
2022-09-09T05:31:51.353Z,99489.41
2022-09-09T05:32:55.721Z,99548.56
2022-09-09T05:33:57.382Z,99481.63
2022-09-09T05:34:59.980Z,99520.47
2022-09-09T05:36:04.930Z,99501.06
2022-09-09T05:37:07.895Z,99531.88
2022-09-09T05:38:09.450Z,99542.50
2022-09-09T05:39:13.052Z,99537.88
2022-09-09T05:40:15.173Z,99510.06
2022-09-09T05:41:19.050Z,99550.50
2022-09-09T05:42:22.497Z,99538.03
2022-09-09T05:43:25.279Z,99549.00
2022-09-09T05:44:28.863Z,99546.91
2022-09-09T05:45:30.477Z,99510.34
2022-09-09T05:46:33.357Z,99536.66
2022-09-09T05:47:35.790Z,99522.38
2022-09-09T05:48:42.418Z,99460.81
2022-09-09T05:49:44.620Z,99563.81
2022-09-09T05:50:54.336Z,99551.97
2022-09-09T05:51:56.173Z,99561.63
2022-09-09T05:53:00.360Z,99527.53
2022-09-09T05:54:01.925Z,99515.69
2022-09-09T05:55:05.514Z,99524.47
2022-09-09T05:56:16.672Z,99555.38
2022-09-09T05:57:20.377Z,99524.53
2022-09-09T05:58:24.646Z,99559.06
2022-09-09T05:59:26.293Z,99556.84
2022-09-09T06:00:28.475Z,99564.84
2022-09-09T06:01:34.220Z,99569.50
2022-09-09T06:02:37.993Z,99558.41
2022-09-09T06:03:41.395Z,99567.22
2022-09-09T06:04:43.953Z,99560.13
2022-09-09T06:05:47.111Z,99515.91
2022-09-09T06:06:49.806Z,99491.69
2022-09-09T06:07:54.603Z,99551.03
2022-09-09T06:09:01.126Z,99535.75
2022-09-09T06:10:02.992Z,99531.63
2022-09-09T06:11:06.196Z,99559.56
2022-09-09T06:12:08.989Z,99538.56
2022-09-09T06:13:12.141Z,99519.28
2022-09-09T06:14:14.478Z,99542.59
2022-09-09T06:15:16.330Z,99559.69
2022-09-09T06:16:20.258Z,99525.94
2022-09-09T06:17:22.279Z,99546.94
2022-09-09T06:18:23.981Z,99555.16
2022-09-09T06:19:27.637Z,99519.88
2022-09-09T06:20:31.579Z,99560.03
2022-09-09T06:21:38.291Z,99514.03
2022-09-09T06:22:42.387Z,99553.88
2022-09-09T06:23:45.802Z,99553.81
2022-09-09T06:24:48.295Z,99439.88
2022-09-09T06:25:50.183Z,99481.50
2022-09-09T06:26:51.910Z,99531.00
2022-09-09T06:27:53.843Z,99568.47
2022-09-09T06:28:56.647Z,99524.00
2022-09-09T06:29:58.567Z,99532.63
2022-09-09T06:31:01.785Z,99547.13
2022-09-09T06:32:05.289Z,99495.03
2022-09-09T06:33:07.463Z,99464.81
2022-09-09T06:34:11.527Z,99551.13
2022-09-09T06:35:14.582Z,99541.56
2022-09-09T06:36:24.961Z,99542.94
2022-09-09T06:37:27.856Z,99560.59
2022-09-09T06:38:29.836Z,99546.38
2022-09-09T06:39:32.752Z,99552.25
2022-09-09T06:40:37.359Z,99544.31
2022-09-09T06:41:39.621Z,99508.91
2022-09-09T06:42:41.552Z,99545.75
2022-09-09T06:43:48.607Z,99536.75
2022-09-09T06:44:50.378Z,99528.22
2022-09-09T06:45:56.857Z,99553.25
2022-09-09T06:46:58.630Z,99543.88
2022-09-09T06:48:00.732Z,99520.50
2022-09-09T06:49:03.477Z,99537.34
2022-09-09T06:50:06.778Z,99547.22
2022-09-09T06:51:15.134Z,99532.66
2022-09-09T06:52:19.475Z,99520.97
2022-09-09T06:53:23.241Z,99529.16
2022-09-09T06:54:26.051Z,99520.50
2022-09-09T06:55:27.790Z,99538.44
2022-09-09T06:56:31.994Z,99538.16
2022-09-09T06:57:37.348Z,99525.16
2022-09-09T06:58:44.342Z,99507.47
2022-09-09T06:59:45.935Z,99516.75
2022-09-09T07:00:47.811Z,99546.50
2022-09-09T07:01:53.565Z,99542.91
2022-09-09T07:02:59.850Z,99541.84
2022-09-09T07:04:03.175Z,99542.94
2022-09-09T07:05:05.464Z,99529.72
2022-09-09T07:06:08.444Z,99540.63
2022-09-09T07:07:13.280Z,99527.63
2022-09-09T07:08:16.178Z,99537.81
2022-09-09T07:09:20.040Z,99551.16
2022-09-09T07:10:21.766Z,99503.28
2022-09-09T07:11:28.111Z,99542.72
2022-09-09T07:12:29.937Z,99549.94
2022-09-09T07:13:32.563Z,99527.09
2022-09-09T07:14:35.495Z,99505.06
2022-09-09T07:15:37.283Z,99539.03
2022-09-09T07:16:39.779Z,99508.28
2022-09-09T07:17:41.858Z,99541.09
2022-09-09T07:18:45.053Z,99538.25
2022-09-09T07:19:46.869Z,99515.06
2022-09-09T07:20:58.991Z,99562.56
2022-09-09T07:22:00.782Z,99554.13
2022-09-09T07:23:02.406Z,99541.28
2022-09-09T07:24:06.129Z,99544.41
2022-09-09T07:25:09.089Z,99514.63
2022-09-09T07:26:16.398Z,99554.44
2022-09-09T07:27:17.945Z,99540.81
2022-09-09T07:28:21.452Z,99552.84
2022-09-09T07:29:23.023Z,99551.66
2022-09-09T07:30:27.738Z,99525.31
2022-09-09T07:31:35.452Z,99540.31
2022-09-09T07:32:37.335Z,99553.00
2022-09-09T07:33:39.230Z,99569.19
2022-09-09T07:34:41.002Z,99567.03
2022-09-09T07:35:42.965Z,99565.22
2022-09-09T07:36:45.261Z,99572.75
2022-09-09T07:37:50.871Z,99572.28
2022-09-09T07:38:55.711Z,99571.91
2022-09-09T07:39:57.287Z,99578.06
2022-09-09T07:41:12.780Z,99565.63
2022-09-09T07:42:16.136Z,99572.63
2022-09-09T07:43:20.096Z,99515.91
2022-09-09T07:44:24.358Z,99570.72
2022-09-09T07:45:26.240Z,99544.69
2022-09-09T07:46:29.020Z,99557.81
2022-09-09T07:47:30.771Z,99547.91
2022-09-09T07:48:34.872Z,99550.97
2022-09-09T07:49:36.437Z,99557.25
2022-09-09T07:50:40.695Z,99556.91
2022-09-09T07:51:45.509Z,99505.78
2022-09-09T07:52:47.119Z,99545.78
2022-09-09T07:53:49.992Z,99552.41
2022-09-09T07:54:51.532Z,99532.22
2022-09-09T07:55:54.696Z,99550.47
2022-09-09T07:56:56.223Z,99569.78
2022-09-09T07:57:59.020Z,99573.75
2022-09-09T07:59:01.098Z,99573.78
2022-09-09T08:00:04.901Z,99553.47
2022-09-09T08:01:31.425Z,99559.34
2022-09-09T08:02:32.941Z,99559.50
2022-09-09T08:03:34.504Z,99575.47
2022-09-09T08:04:36.422Z,99563.78
2022-09-09T08:05:41.242Z,99548.66
2022-09-09T08:06:45.342Z,99577.25
2022-09-09T08:07:47.583Z,99573.75
2022-09-09T08:08:52.373Z,99589.16
2022-09-09T08:09:56.625Z,99544.22
2022-09-09T08:11:08.461Z,99563.56
2022-09-09T08:12:12.038Z,99573.72
2022-09-09T08:13:18.238Z,99555.59
2022-09-09T08:14:20.670Z,99563.78
2022-09-09T08:15:23.194Z,99580.47
2022-09-09T08:16:31.565Z,99562.13
2022-09-09T08:17:33.911Z,99581.25
2022-09-09T08:18:36.376Z,99557.69
2022-09-09T08:19:38.166Z,99581.59
2022-09-09T08:20:40.163Z,99588.31
2022-09-09T08:21:43.431Z,99590.19
2022-09-09T08:22:45.126Z,99572.44
2022-09-09T08:23:48.362Z,99579.78
2022-09-09T08:24:50.287Z,99599.31
2022-09-09T08:25:51.954Z,99593.91
2022-09-09T08:26:54.616Z,99590.63
2022-09-09T08:27:56.839Z,99593.16
2022-09-09T08:29:00.508Z,99553.25
2022-09-09T08:30:02.129Z,99572.63
2022-09-09T08:31:08.764Z,99579.13
2022-09-09T08:32:10.706Z,99587.94
2022-09-09T08:33:13.414Z,99596.34
2022-09-09T08:34:15.324Z,99588.34
2022-09-09T08:35:19.289Z,99599.31
2022-09-09T08:36:23.798Z,99578.94
2022-09-09T08:37:25.993Z,99602.28
2022-09-09T08:38:28.568Z,99594.94
2022-09-09T08:39:30.389Z,99572.91
2022-09-09T08:40:38.410Z,99591.13
2022-09-09T08:42:12.731Z,99604.09
2022-09-09T08:43:16.013Z,99574.13
2022-09-09T08:44:39.153Z,99600.31
2022-09-09T08:45:51.491Z,99585.03
2022-09-09T08:47:07.390Z,99586.53
2022-09-09T08:48:20.695Z,99583.00
2022-09-09T08:49:43.680Z,99590.56
2022-09-09T08:50:47.702Z,99577.66
2022-09-09T08:51:50.749Z,99611.69
2022-09-09T08:52:55.786Z,99595.25
2022-09-09T08:54:04.166Z,99576.06
2022-09-09T08:55:46.554Z,99625.50
2022-09-09T08:56:49.113Z,99598.56
2022-09-09T08:57:53.725Z,99609.63
2022-09-09T08:58:57.958Z,99613.25
2022-09-09T09:00:01.021Z,99608.72
2022-09-09T09:01:35.650Z,99609.75
2022-09-09T09:03:11.214Z,99590.66
2022-09-09T09:04:56.767Z,99605.53
2022-09-09T09:06:35.487Z,99587.31
2022-09-09T09:07:52.966Z,99605.28
2022-09-09T09:09:09.391Z,99607.84
2022-09-09T09:10:42.696Z,99605.78
2022-09-09T09:12:02.138Z,99560.44
2022-09-09T09:13:04.520Z,99603.75
2022-09-09T09:15:42.759Z,99579.78
2022-09-09T09:17:06.621Z,99599.72
2022-09-09T09:18:13.709Z,99563.56
2022-09-09T09:19:17.867Z,99549.09
2022-09-09T09:20:28.214Z,99600.84
2022-09-09T09:21:37.849Z,99606.69
2022-09-09T09:22:49.425Z,99569.00
2022-09-09T09:24:00.142Z,99581.69
2022-09-09T09:25:21.490Z,99609.31
2022-09-09T09:26:34.142Z,99562.75
2022-09-09T09:27:42.635Z,99601.19
2022-09-09T09:28:46.457Z,99570.41
2022-09-09T09:30:21.084Z,99478.38
2022-09-09T09:31:15.074Z,99599.25
2022-09-09T09:32:21.401Z,99562.34
2022-09-09T09:33:34.230Z,99603.75
2022-09-09T09:34:36.214Z,99595.81
2022-09-09T09:35:42.973Z,99592.59
2022-09-09T09:36:53.625Z,99565.13
2022-09-09T09:40:59.696Z,99607.38
2022-09-09T09:42:12.603Z,99571.25
2022-09-09T09:43:28.971Z,99602.59
2022-09-09T09:44:34.183Z,99604.66
2022-09-09T09:46:06.786Z,99555.75
2022-09-09T09:47:29.110Z,99424.16
2022-09-09T09:48:32.852Z,99580.00
2022-09-09T09:49:34.526Z,99583.72
2022-09-09T09:50:41.900Z,99595.97
2022-09-09T09:51:44.721Z,99592.06
2022-09-09T09:52:56.788Z,99591.25
2022-09-09T09:54:23.997Z,99602.28
2022-09-09T09:55:27.161Z,99594.78
2022-09-09T09:56:30.601Z,99578.09
2022-09-09T09:57:34.216Z,99589.44
2022-09-09T09:58:51.817Z,99619.88
2022-09-09T10:00:10.448Z,99606.53
2022-09-09T10:01:34.673Z,99611.72
2022-09-09T10:02:44.311Z,99619.88
2022-09-09T10:04:03.932Z,99628.94
2022-09-09T10:05:14.368Z,99615.81
2022-09-09T10:06:16.555Z,99620.66
2022-09-09T10:07:23.267Z,99639.69
2022-09-09T10:08:27.310Z,99632.91
2022-09-09T10:09:34.100Z,99637.75
2022-09-09T10:10:36.404Z,99644.88
2022-09-09T10:11:55.934Z,99618.63
2022-09-09T10:13:18.949Z,99638.41
2022-09-09T10:14:41.094Z,99632.97
2022-09-09T10:15:57.121Z,99633.69
2022-09-09T10:17:29.159Z,99616.09
2022-09-09T10:18:51.696Z,99619.75
2022-09-09T10:20:00.842Z,99609.38
2022-09-09T10:21:21.686Z,99581.41
2022-09-09T10:22:31.494Z,99605.88
2022-09-09T10:23:56.148Z,99605.22
2022-09-09T10:25:25.533Z,99608.66
2022-09-09T10:26:46.632Z,99610.16
2022-09-09T10:28:06.221Z,99611.56
2022-09-09T10:29:44.998Z,99608.09
2022-09-09T10:31:08.401Z,99613.81
2022-09-09T10:32:47.369Z,99604.78
2022-09-09T10:34:02.474Z,99614.75
2022-09-09T10:35:14.183Z,99607.81
2022-09-09T10:36:16.123Z,99615.41
2022-09-09T10:37:36.384Z,99619.09
2022-09-09T10:38:44.390Z,99605.78
2022-09-09T10:39:46.226Z,99542.00
2022-09-09T10:40:57.466Z,99636.56
2022-09-09T10:42:05.256Z,99628.91
2022-09-09T10:43:35.895Z,99628.78
2022-09-09T10:45:12.579Z,99626.16
2022-09-09T10:46:22.040Z,99621.09
2022-09-09T10:48:12.928Z,99630.81
2022-09-09T10:49:32.720Z,99627.78
2022-09-09T10:51:01.317Z,99626.59
2022-09-09T10:52:30.913Z,99630.16
2022-09-09T10:53:38.898Z,99633.34
2022-09-09T10:55:13.750Z,99640.81
2022-09-09T10:56:19.690Z,99600.44
2022-09-09T10:57:38.173Z,99621.28
2022-09-09T10:58:48.490Z,99618.81
2022-09-09T10:59:58.081Z,99631.25
2022-09-09T11:01:10.598Z,99590.97
2022-09-09T11:02:28.955Z,99611.59
2022-09-09T11:03:34.682Z,99615.09
2022-09-09T11:04:44.430Z,99587.63
2022-09-09T11:05:55.241Z,99600.03
2022-09-09T11:06:57.597Z,99546.72
2022-09-09T11:08:32.598Z,99612.03
2022-09-09T11:09:42.861Z,99606.09
2022-09-09T11:11:08.894Z,99612.03
2022-09-09T11:12:16.871Z,99602.28
2022-09-09T11:13:27.455Z,99612.75
2022-09-09T11:14:46.536Z,99604.22
2022-09-09T11:15:55.895Z,99609.75
2022-09-09T11:17:07.767Z,99582.47
2022-09-09T11:18:19.122Z,99599.03
2022-09-09T11:19:27.016Z,99624.38
2022-09-09T11:20:29.683Z,99603.56
2022-09-09T11:21:39.471Z,99595.22
2022-09-09T11:22:52.290Z,99570.31
2022-09-09T11:24:00.245Z,99570.06
2022-09-09T11:25:13.793Z,99598.25
2022-09-09T11:26:30.857Z,99584.63
2022-09-09T11:27:40.629Z,99571.88
2022-09-09T11:29:04.893Z,99587.28
2022-09-09T11:30:53.664Z,99581.50
2022-09-09T11:32:01.072Z,99586.97
2022-09-09T11:33:26.561Z,99556.19
2022-09-09T11:35:04.329Z,99580.41
2022-09-09T11:36:34.459Z,99578.59
2022-09-09T11:37:39.122Z,99583.75
2022-09-09T11:38:48.653Z,99570.69
2022-09-09T11:40:06.347Z,99576.34
2022-09-09T11:41:11.168Z,99573.00
2022-09-09T11:42:26.308Z,99572.09
2022-09-09T11:43:33.056Z,99566.72
2022-09-09T11:45:42.941Z,99528.34
2022-09-09T11:46:53.325Z,99584.69
2022-09-09T11:47:57.692Z,99528.84
2022-09-09T11:49:04.747Z,99531.84
2022-09-09T11:50:10.901Z,99550.00
2022-09-09T11:51:22.015Z,99563.13
2022-09-09T11:52:46.977Z,99560.41
2022-09-09T11:54:04.324Z,99506.81
2022-09-09T11:55:13.570Z,99560.31
2022-09-09T11:56:27.185Z,99540.81
2022-09-09T11:57:39.398Z,99542.53
2022-09-09T11:58:54.717Z,99513.75
2022-09-09T11:59:57.571Z,99515.53
2022-09-09T12:00:59.672Z,99533.19
2022-09-09T12:02:14.356Z,99528.50
2022-09-09T12:03:44.715Z,99550.16
2022-09-09T12:05:21.539Z,99551.53
2022-09-09T12:06:50.107Z,99555.63
2022-09-09T12:08:00.314Z,99547.94
2022-09-09T12:09:24.362Z,99536.50
2022-09-09T12:10:43.521Z,99538.47
2022-09-09T12:11:46.507Z,99542.03
2022-09-09T12:12:48.902Z,99509.94
2022-09-09T12:13:55.567Z,99522.41
2022-09-09T12:15:04.880Z,99528.00
2022-09-09T12:16:09.735Z,99531.06
2022-09-09T12:17:23.899Z,99499.69
2022-09-09T12:18:45.506Z,99523.19
2022-09-09T12:19:48.334Z,99553.69
2022-09-09T12:21:03.746Z,99527.19
2022-09-09T12:22:21.296Z,99494.69
2022-09-09T12:23:51.394Z,99539.25
2022-09-09T12:25:23.033Z,99534.91
2022-09-09T12:26:34.595Z,99516.03
2022-09-09T12:27:54.425Z,99525.72
2022-09-09T12:29:07.852Z,99501.25
2022-09-09T12:30:16.998Z,99539.34
2022-09-09T12:31:45.732Z,99548.09
2022-09-09T12:32:47.669Z,99553.59
2022-09-09T12:33:49.701Z,99505.38
2022-09-09T12:34:59.638Z,99560.69
2022-09-09T12:36:04.159Z,99567.16
2022-09-09T12:37:36.820Z,99549.94
2022-09-09T12:38:42.525Z,99549.16
2022-09-09T12:39:54.806Z,99531.66
2022-09-09T12:40:59.619Z,99548.56
2022-09-09T12:42:01.612Z,99469.88
2022-09-09T12:43:23.019Z,99539.47
2022-09-09T12:44:27.063Z,99517.56
2022-09-09T12:45:34.449Z,99524.97
2022-09-09T12:46:43.771Z,99539.06
2022-09-09T12:48:08.610Z,99540.47
2022-09-09T12:49:43.469Z,99529.63
2022-09-09T12:50:53.562Z,99448.72
2022-09-09T12:51:57.306Z,99507.59
2022-09-09T12:53:22.092Z,99505.94
2022-09-09T12:54:26.570Z,99514.22
2022-09-09T12:55:37.086Z,99506.00
2022-09-09T12:56:40.781Z,99521.00
2022-09-09T12:57:44.285Z,99503.94
2022-09-09T12:58:48.903Z,99470.56
2022-09-09T12:59:50.629Z,99507.56
2022-09-09T13:02:22.872Z,99526.50
2022-09-09T13:03:26.055Z,99516.63
2022-09-09T13:04:29.368Z,99513.97
2022-09-09T13:05:40.256Z,99519.53
2022-09-09T13:06:42.395Z,99504.25
2022-09-09T13:07:44.696Z,99506.44
2022-09-09T13:08:46.336Z,99496.84
2022-09-09T13:09:50.221Z,99499.34
2022-09-09T13:11:04.161Z,99475.50
2022-09-09T13:12:14.678Z,99490.91
2022-09-09T13:13:24.081Z,99492.63
2022-09-09T13:14:38.477Z,99488.22
2022-09-09T13:15:42.908Z,99489.78
2022-09-09T13:17:06.079Z,99486.47
2022-09-09T13:18:14.429Z,99480.81
2022-09-09T13:19:18.461Z,99487.03
2022-09-09T13:20:21.686Z,99502.84
2022-09-09T13:21:36.270Z,99467.00
2022-09-09T13:22:41.829Z,99495.25
2022-09-09T13:23:50.573Z,99500.69
2022-09-09T13:25:17.899Z,99514.13
2022-09-09T13:26:28.202Z,99492.06
2022-09-09T13:27:31.951Z,99510.69
2022-09-09T13:28:34.594Z,99505.72
2022-09-09T13:29:38.510Z,99486.88